createdAt,value
2019-04-06T00:02:27.209Z,67.13
2019-04-06T00:04:55.680Z,67.15
2019-04-06T00:07:24.285Z,66.92
2019-04-06T00:09:52.852Z,66.87
2019-04-06T00:12:21.556Z,67.07
2019-04-06T00:14:50.097Z,66.96
2019-04-06T00:17:18.790Z,66.94
2019-04-06T00:19:47.325Z,66.84
2019-04-06T00:22:15.859Z,66.62
2019-04-06T00:24:44.607Z,66.44
2019-04-06T00:27:13.400Z,66.51
2019-04-06T00:29:42.371Z,66.59
2019-04-06T00:32:12.615Z,66.63
2019-04-06T00:34:41.227Z,66.67
2019-04-06T00:37:09.841Z,66.70
2019-04-06T00:39:38.345Z,66.95
2019-04-06T00:42:07.025Z,66.95
2019-04-06T00:44:35.569Z,67.00
2019-04-06T00:47:04.187Z,67.00
2019-04-06T00:49:32.790Z,67.19
2019-04-06T00:52:07.115Z,67.14
2019-04-06T00:54:35.725Z,67.43
2019-04-06T00:57:04.482Z,67.33
2019-04-06T00:59:33.072Z,67.44
2019-04-06T01:02:01.697Z,67.48
2019-04-06T01:04:30.233Z,67.72
2019-04-06T01:06:58.948Z,67.93
2019-04-06T01:09:27.580Z,67.80
2019-04-06T01:11:57.588Z,67.99
2019-04-06T01:14:26.125Z,67.87
2019-04-06T01:16:54.734Z,68.06
2019-04-06T01:19:23.340Z,67.89
2019-04-06T01:21:51.933Z,68.13
2019-04-06T01:24:20.497Z,68.13
2019-04-06T01:26:49.112Z,68.05
2019-04-06T01:29:17.709Z,67.93
2019-04-06T01:31:46.235Z,67.95
2019-04-06T01:34:14.846Z,68.22
2019-04-06T01:36:43.447Z,68.14
2019-04-06T01:39:11.990Z,67.93
2019-04-06T01:41:40.672Z,68.17
2019-04-06T01:44:09.480Z,68.56
2019-04-06T01:46:38.013Z,68.66
2019-04-06T01:49:06.688Z,68.85
2019-04-06T01:51:35.227Z,69.10
2019-04-06T01:54:03.690Z,69.35
2019-04-06T01:56:32.394Z,69.22
2019-04-06T01:59:00.948Z,69.32
2019-04-06T02:01:31.125Z,69.31
2019-04-06T02:03:59.862Z,69.40
2019-04-06T02:06:28.520Z,69.20
2019-04-06T02:08:57.123Z,69.29
2019-04-06T02:11:25.736Z,69.58
2019-04-06T02:13:54.333Z,69.65
2019-04-06T02:16:22.960Z,69.81
2019-04-06T02:18:51.497Z,69.75
2019-04-06T02:21:20.067Z,69.67
2019-04-06T02:23:48.815Z,69.55
2019-04-06T02:26:17.376Z,69.54
2019-04-06T02:28:45.994Z,69.53
2019-04-06T02:31:18.928Z,69.52
2019-04-06T02:33:57.920Z,69.75
2019-04-06T02:36:44.476Z,69.73
2019-04-06T02:39:30.818Z,69.61
2019-04-06T02:42:07.190Z,69.69
2019-04-06T02:44:35.696Z,69.88
2019-04-06T02:47:04.567Z,69.76
2019-04-06T02:49:33.172Z,69.82
2019-04-06T02:52:01.708Z,70.03
2019-04-06T02:54:30.260Z,70.34
2019-04-06T02:56:58.939Z,70.10
2019-04-06T02:59:27.592Z,70.09
2019-04-06T03:01:56.227Z,70.03
2019-04-06T03:04:24.918Z,69.96
2019-04-06T03:06:53.455Z,70.18
2019-04-06T03:09:22.133Z,70.35
2019-04-06T03:11:50.772Z,70.44
2019-04-06T03:14:19.385Z,70.36
2019-04-06T03:16:48.019Z,70.51
2019-04-06T03:19:16.695Z,70.44
2019-04-06T03:21:45.244Z,70.49
2019-04-06T03:24:13.782Z,70.69
2019-04-06T03:26:42.499Z,70.91
2019-04-06T03:29:12.774Z,70.83
2019-04-06T03:31:41.418Z,70.73
2019-04-06T03:34:10.043Z,71.11
2019-04-06T03:36:38.671Z,71.17
2019-04-06T03:39:07.713Z,71.29
2019-04-06T03:41:36.266Z,71.21
2019-04-06T03:44:05.326Z,71.17
2019-04-06T03:46:34.154Z,71.38
2019-04-06T03:49:02.967Z,71.45
2019-04-06T03:51:31.446Z,71.39
2019-04-06T03:54:01.321Z,71.59
2019-04-06T03:56:29.810Z,71.76
2019-04-06T03:58:58.678Z,72.04
2019-04-06T04:01:27.611Z,71.96
2019-04-06T04:03:57.827Z,72.03
2019-04-06T04:06:26.343Z,72.07
2019-04-06T04:08:54.953Z,72.30
2019-04-06T04:11:23.496Z,72.44
2019-04-06T04:13:53.429Z,72.51
2019-04-06T04:16:22.079Z,72.61
2019-04-06T04:18:50.619Z,72.70
2019-04-06T04:21:19.154Z,72.47
2019-04-06T04:23:47.786Z,72.51
2019-04-06T04:26:16.363Z,72.88
2019-04-06T04:28:44.879Z,72.93
2019-04-06T04:31:13.488Z,73.10
2019-04-06T04:33:42.213Z,73.05
2019-04-06T04:36:10.774Z,73.22
2019-04-06T04:38:39.345Z,72.88
2019-04-06T04:41:07.949Z,72.61
2019-04-06T04:43:36.628Z,72.38
2019-04-06T04:46:05.332Z,72.26
2019-04-06T04:48:33.978Z,72.31
2019-04-06T04:51:02.641Z,72.20
2019-04-06T04:53:31.283Z,72.39
2019-04-06T04:55:59.773Z,72.28
2019-04-06T04:58:28.365Z,72.34
2019-04-06T05:00:56.974Z,72.31
2019-04-06T05:03:25.596Z,72.62
2019-04-06T05:05:54.360Z,72.67
2019-04-06T05:08:23.005Z,72.62
2019-04-06T05:10:51.575Z,72.53
2019-04-06T05:13:20.179Z,72.26
2019-04-06T05:16:11.976Z,71.83
2019-04-06T05:18:42.205Z,71.68
2019-04-06T05:21:11.801Z,71.50
2019-04-06T05:23:40.873Z,71.29
2019-04-06T05:26:09.715Z,71.18
2019-04-06T05:28:38.451Z,71.21
2019-04-06T05:31:08.561Z,71.03
2019-04-06T05:33:37.218Z,70.87
2019-04-06T05:36:06.437Z,70.60
2019-04-06T05:38:35.227Z,70.47
2019-04-06T05:41:04.942Z,70.25
2019-04-06T05:43:33.509Z,69.90
2019-04-06T05:46:02.131Z,69.69
2019-04-06T05:48:30.640Z,69.54
2019-04-06T05:50:59.327Z,69.30
2019-04-06T05:53:28.052Z,68.99
2019-04-06T05:55:56.634Z,68.69
2019-04-06T05:58:25.248Z,68.46
2019-04-06T06:00:53.898Z,68.22
2019-04-06T06:03:22.439Z,67.43
2019-04-06T06:05:51.052Z,67.20
2019-04-06T06:08:19.668Z,66.88
2019-04-06T06:10:48.577Z,66.60
2019-04-06T06:13:17.280Z,66.42
2019-04-06T06:15:45.890Z,66.68
2019-04-06T06:18:25.360Z,66.75
2019-04-06T06:20:44.685Z,66.69
2019-04-06T06:23:13.403Z,66.39
2019-04-06T06:25:42.168Z,66.36
2019-04-06T06:28:15.078Z,66.21
2019-04-06T06:30:41.105Z,65.88
2019-04-06T06:33:10.046Z,65.76
2019-04-06T06:35:39.576Z,65.57
2019-04-06T06:38:08.677Z,65.33
2019-04-06T06:40:37.161Z,64.99
2019-04-06T06:43:05.860Z,64.85
2019-04-06T06:45:34.757Z,64.57
2019-04-06T06:48:03.334Z,64.24
2019-04-06T06:50:34.252Z,64.09
2019-04-06T06:53:03.131Z,63.96
2019-04-06T06:55:31.781Z,63.62
2019-04-06T06:58:00.321Z,63.21
2019-04-06T07:00:28.970Z,62.92
2019-04-06T07:02:57.581Z,62.12
2019-04-06T07:05:26.200Z,61.44
2019-04-06T07:07:54.898Z,60.82
2019-04-06T07:10:23.468Z,60.24
2019-04-06T07:12:52.088Z,59.86
2019-04-06T07:15:20.699Z,59.65
2019-04-06T07:17:49.354Z,59.44
2019-04-06T07:20:18.280Z,59.23
2019-04-06T07:22:48.897Z,58.76
2019-04-06T07:25:17.507Z,58.54
2019-04-06T07:27:45.987Z,58.24
2019-04-06T07:30:14.697Z,58.01
2019-04-06T07:32:43.321Z,57.54
2019-04-06T07:35:12.050Z,57.51
2019-04-06T07:37:40.826Z,57.39
2019-04-06T07:40:09.802Z,57.03
2019-04-06T07:42:38.323Z,56.92
2019-04-06T07:45:10.291Z,56.80
2019-04-06T07:47:39.280Z,56.59
2019-04-06T07:50:09.051Z,56.48
2019-04-06T07:52:37.768Z,56.52
2019-04-06T07:55:09.539Z,56.46
2019-04-06T07:57:38.169Z,56.26
2019-04-06T08:00:10.310Z,56.28
2019-04-06T08:02:38.947Z,56.09
2019-04-06T08:05:08.031Z,56.00
2019-04-06T08:07:36.677Z,55.94
2019-04-06T08:10:07.135Z,55.35
2019-04-06T08:12:35.760Z,54.92
2019-04-06T08:15:06.856Z,55.15
2019-04-06T08:17:35.482Z,54.99
2019-04-06T08:20:08.715Z,54.79
2019-04-06T08:22:37.358Z,54.66
2019-04-06T08:25:08.065Z,54.32
2019-04-06T08:27:36.835Z,54.10
2019-04-06T08:30:12.765Z,53.90
2019-04-06T08:32:41.411Z,53.18
2019-04-06T08:35:10.082Z,53.33
2019-04-06T08:37:38.927Z,53.23
2019-04-06T08:40:08.325Z,53.10
2019-04-06T08:42:37.062Z,53.17
2019-04-06T08:45:07.518Z,52.91
2019-04-06T08:47:38.312Z,52.73
2019-04-06T08:50:08.202Z,52.82
2019-04-06T08:52:36.759Z,52.56
2019-04-06T08:55:07.153Z,52.28
2019-04-06T08:57:36.074Z,52.05
2019-04-06T09:00:07.162Z,51.78
2019-04-06T09:02:36.295Z,51.71
2019-04-06T09:05:10.944Z,51.46
2019-04-06T09:07:40.926Z,51.72
2019-04-06T09:10:09.963Z,51.61
2019-04-06T09:12:38.732Z,51.60
2019-04-06T09:15:10.140Z,51.58
2019-04-06T09:17:38.682Z,51.50
2019-04-06T09:20:08.399Z,51.34
2019-04-06T09:22:37.039Z,51.29
2019-04-06T09:25:07.362Z,51.49
2019-04-06T09:27:36.019Z,51.20
2019-04-06T09:30:07.436Z,51.54
2019-04-06T09:32:35.903Z,51.53
2019-04-06T09:35:05.428Z,51.41
2019-04-06T09:37:34.029Z,51.42
2019-04-06T09:40:02.964Z,51.55
2019-04-06T09:42:31.685Z,51.66
2019-04-06T09:45:17.839Z,51.83
2019-04-06T09:48:00.272Z,51.79
2019-04-06T09:50:39.125Z,51.99
2019-04-06T09:53:18.370Z,52.14
2019-04-06T09:55:51.637Z,52.47
2019-04-06T09:58:38.226Z,52.71
2019-04-06T10:01:14.485Z,52.89
2019-04-06T10:03:59.943Z,53.19
2019-04-06T10:06:45.061Z,53.72
2019-04-06T10:09:15.321Z,54.33
2019-04-06T10:12:04.535Z,54.82
2019-04-06T10:14:53.020Z,55.26
2019-04-06T10:17:32.387Z,55.91
2019-04-06T10:20:11.908Z,56.28
2019-04-06T10:22:54.371Z,57.13
2019-04-06T10:25:24.677Z,58.07
2019-04-06T10:28:00.895Z,58.97
2019-04-06T10:30:31.227Z,59.81
2019-04-06T10:33:07.153Z,60.51
2019-04-06T10:35:48.547Z,61.17
2019-04-06T10:38:27.456Z,61.94
2019-04-06T10:40:57.641Z,62.89
2019-04-06T10:43:39.879Z,63.47
2019-04-06T10:46:22.313Z,63.82
2019-04-06T10:48:52.440Z,64.56
2019-04-06T10:51:22.794Z,65.35
2019-04-06T10:54:07.921Z,65.51
2019-04-06T10:56:44.137Z,66.15
2019-04-06T10:59:30.762Z,67.26
2019-04-06T11:02:04.064Z,67.54
2019-04-06T11:04:34.323Z,67.91
2019-04-06T11:07:21.170Z,68.54
2019-04-06T11:09:54.291Z,69.52
2019-04-06T11:12:36.751Z,70.00
2019-04-06T11:15:24.364Z,70.77
2019-04-06T11:18:09.906Z,71.42
2019-04-06T11:20:44.320Z,71.71
2019-04-06T11:23:20.580Z,72.12
2019-04-06T11:25:50.873Z,72.71
2019-04-06T11:28:21.262Z,73.06
2019-04-06T11:30:51.487Z,73.43
2019-04-06T11:33:22.000Z,73.75
2019-04-06T11:36:10.339Z,74.09
2019-04-06T11:38:49.632Z,74.35
2019-04-06T11:41:22.720Z,74.79
2019-04-06T11:43:58.821Z,75.17
2019-04-06T11:46:35.122Z,75.13
2019-04-06T11:49:08.037Z,75.18
2019-04-06T11:51:47.369Z,75.64
2019-04-06T11:54:20.578Z,75.69
2019-04-06T11:56:56.670Z,76.01
2019-04-06T11:59:28.342Z,76.23
2019-04-06T12:01:58.894Z,75.61
2019-04-06T12:04:29.230Z,76.17
2019-04-06T12:07:15.603Z,76.14
2019-04-06T12:09:48.342Z,76.72
2019-04-06T12:12:35.059Z,76.78
2019-04-06T12:15:07.853Z,76.77
2019-04-06T12:17:57.676Z,76.75
2019-04-06T12:20:28.204Z,76.75
2019-04-06T12:22:58.839Z,76.85
2019-04-06T12:25:38.056Z,76.96
2019-04-06T12:28:23.740Z,77.37
2019-04-06T12:31:09.878Z,77.45
2019-04-06T12:33:56.677Z,76.63
2019-04-06T12:36:29.771Z,76.73
2019-04-06T12:39:16.109Z,76.91
2019-04-06T12:41:46.222Z,76.88
2019-04-06T12:44:32.396Z,76.83
2019-04-06T12:47:19.050Z,77.22
2019-04-06T12:49:58.462Z,77.29
2019-04-06T12:52:31.333Z,77.23
2019-04-06T12:55:13.853Z,77.49
2019-04-06T12:57:44.042Z,78.11
2019-04-06T13:00:30.886Z,77.09
2019-04-06T13:03:01.305Z,77.07
2019-04-06T13:05:43.389Z,77.63
2019-04-06T13:08:16.702Z,77.46
2019-04-06T13:10:58.797Z,77.33
2019-04-06T13:13:41.233Z,76.47
2019-04-06T13:16:14.275Z,76.62
2019-04-06T13:19:02.766Z,76.78
2019-04-06T13:21:49.453Z,76.65
2019-04-06T13:24:23.048Z,77.00
2019-04-06T13:26:53.420Z,76.45
2019-04-06T13:29:26.061Z,76.37
2019-04-06T13:31:59.265Z,76.31
2019-04-06T13:34:44.476Z,75.60
2019-04-06T13:37:23.548Z,75.17
2019-04-06T13:39:53.991Z,75.79
2019-04-06T13:42:30.357Z,74.67
2019-04-06T13:45:03.196Z,75.97
2019-04-06T13:47:33.567Z,76.51
2019-04-06T13:50:09.699Z,75.55
2019-04-06T13:52:45.855Z,75.98
2019-04-06T13:55:31.904Z,75.96
2019-04-06T13:58:08.077Z,75.79
2019-04-06T14:00:44.546Z,75.52
2019-04-06T14:03:23.899Z,75.92
2019-04-06T14:06:10.640Z,76.33
2019-04-06T14:08:40.827Z,76.77
2019-04-06T14:11:14.237Z,77.14
2019-04-06T14:13:47.684Z,77.56
2019-04-06T14:16:34.450Z,78.00
2019-04-06T14:19:04.837Z,78.18
2019-04-06T14:21:44.075Z,78.34
2019-04-06T14:24:17.569Z,78.62
2019-04-06T14:27:00.056Z,78.40
2019-04-06T14:29:48.377Z,78.57
2019-04-06T14:32:35.366Z,78.79
2019-04-06T14:35:23.454Z,79.06
2019-04-06T14:37:53.772Z,79.31
2019-04-06T14:40:40.388Z,79.34
2019-04-06T14:43:16.127Z,80.10
2019-04-06T14:45:49.014Z,79.25
2019-04-06T14:48:35.718Z,79.16
2019-04-06T14:51:21.245Z,78.61
2019-04-06T14:53:51.386Z,78.15
2019-04-06T14:56:28.032Z,78.14
2019-04-06T14:58:59.017Z,78.22
2019-04-06T15:01:56.979Z,78.27
2019-04-06T15:04:19.300Z,78.11
2019-04-06T15:06:49.604Z,78.04
2019-04-06T15:09:20.178Z,77.67
2019-04-06T15:11:59.582Z,78.12
2019-04-06T15:14:36.091Z,78.24
2019-04-06T15:17:09.007Z,78.59
2019-04-06T15:19:54.235Z,79.00
2019-04-06T15:22:27.496Z,78.90
2019-04-06T15:25:16.063Z,78.71
2019-04-06T15:27:54.723Z,78.99
2019-04-06T15:30:24.975Z,78.13
2019-04-06T15:32:55.090Z,78.43
2019-04-06T15:35:34.452Z,78.44
2019-04-06T15:38:04.794Z,78.57
2019-04-06T15:40:38.190Z,78.42
2019-04-06T15:43:14.454Z,78.28
2019-04-06T15:45:47.385Z,77.95
2019-04-06T15:48:17.600Z,78.12
2019-04-06T15:50:53.836Z,78.20
2019-04-06T15:53:36.417Z,78.22
2019-04-06T15:56:12.578Z,78.26
2019-04-06T15:58:55.010Z,77.98
2019-04-06T16:01:25.413Z,78.07
2019-04-06T16:03:55.594Z,78.14
2019-04-06T16:06:25.860Z,78.25
2019-04-06T16:09:14.215Z,78.24
2019-04-06T16:11:56.487Z,78.30
2019-04-06T16:14:35.756Z,78.14
2019-04-06T16:17:22.054Z,78.05
2019-04-06T16:19:55.890Z,78.43
2019-04-06T16:22:26.591Z,78.09
2019-04-06T16:24:59.678Z,78.27
2019-04-06T16:27:32.679Z,78.06
2019-04-06T16:30:05.610Z,78.17
2019-04-06T16:32:47.470Z,78.43
2019-04-06T16:35:29.880Z,78.63
2019-04-06T16:38:18.129Z,78.56
2019-04-06T16:40:51.236Z,78.48
2019-04-06T16:43:34.039Z,78.35
2019-04-06T16:46:16.547Z,78.66
2019-04-06T16:48:52.420Z,78.52
2019-04-06T16:51:22.804Z,78.39
2019-04-06T16:54:09.346Z,78.46
2019-04-06T16:56:45.544Z,78.73
2019-04-06T16:59:15.772Z,78.67
2019-04-06T17:02:02.314Z,78.67
2019-04-06T17:04:35.267Z,78.73
2019-04-06T17:07:08.652Z,78.70
2019-04-06T17:09:44.396Z,78.77
2019-04-06T17:12:15.308Z,78.81
2019-04-06T17:14:48.196Z,78.89
2019-04-06T17:17:34.806Z,78.95
2019-04-06T17:20:12.483Z,78.87
2019-04-06T17:22:45.496Z,79.01
2019-04-06T17:25:21.475Z,79.29
2019-04-06T17:27:52.299Z,79.39
2019-04-06T17:30:31.551Z,79.34
2019-04-06T17:33:18.575Z,79.27
2019-04-06T17:36:05.214Z,79.36
2019-04-06T17:38:51.639Z,79.33
2019-04-06T17:41:21.813Z,79.30
2019-04-06T17:44:03.855Z,79.66
2019-04-06T17:46:34.043Z,79.76
2019-04-06T17:49:06.990Z,79.82
2019-04-06T17:51:37.294Z,79.71
2019-04-06T17:54:07.732Z,79.75
2019-04-06T17:56:46.781Z,79.93
2019-04-06T17:59:32.861Z,79.93
2019-04-06T18:02:09.320Z,79.81
2019-04-06T18:04:39.507Z,80.02
2019-04-06T18:07:15.803Z,80.05
2019-04-06T18:10:02.467Z,80.36
2019-04-06T18:12:35.471Z,80.61
2019-04-06T18:15:06.227Z,80.77
2019-04-06T18:17:34.880Z,80.85
2019-04-06T18:20:04.920Z,81.04
2019-04-06T18:22:34.294Z,81.11
2019-04-06T18:25:03.421Z,81.20
2019-04-06T18:27:32.048Z,81.28
2019-04-06T18:30:01.067Z,81.38
2019-04-06T18:32:59.697Z,81.62
2019-04-06T18:35:19.823Z,81.65
2019-04-06T18:37:52.733Z,81.53
2019-04-06T18:40:22.975Z,81.68
2019-04-06T18:42:52.946Z,81.73
2019-04-06T18:45:21.952Z,81.95
2019-04-06T18:47:50.836Z,81.98
2019-04-06T18:50:20.133Z,82.11
2019-04-06T18:52:48.754Z,81.81
2019-04-06T18:55:17.771Z,81.71
2019-04-06T18:57:46.955Z,81.85
2019-04-06T19:00:17.901Z,81.98
2019-04-06T19:02:46.514Z,82.06
2019-04-06T19:05:16.263Z,82.25
2019-04-06T19:07:44.904Z,82.41
2019-04-06T19:10:13.719Z,82.44
2019-04-06T19:12:42.798Z,82.29
2019-04-06T19:15:13.679Z,82.31
2019-04-06T19:17:42.810Z,82.29
2019-04-06T19:20:12.279Z,82.35
2019-04-06T19:22:41.020Z,82.24
2019-04-06T19:25:10.468Z,82.21
2019-04-06T19:27:39.321Z,82.46
2019-04-06T19:30:10.191Z,82.51
2019-04-06T19:32:39.066Z,82.59
2019-04-06T19:35:08.985Z,82.62
2019-04-06T19:37:37.638Z,82.75
2019-04-06T19:40:07.913Z,82.85
2019-04-06T19:42:36.559Z,82.90
2019-04-06T19:45:08.390Z,83.16
2019-04-06T19:47:37.040Z,83.44
2019-04-06T19:50:08.216Z,83.52
2019-04-06T19:52:37.021Z,83.54
2019-04-06T19:55:07.760Z,83.82
2019-04-06T19:57:36.311Z,83.86
2019-04-06T20:00:06.909Z,83.97
2019-04-06T20:02:35.753Z,83.97
2019-04-06T20:05:07.396Z,83.68
2019-04-06T20:07:35.930Z,83.80
2019-04-06T20:10:06.285Z,83.36
2019-04-06T20:12:34.862Z,83.37
2019-04-06T20:15:04.895Z,83.40
2019-04-06T20:17:33.431Z,83.37
2019-04-06T20:20:02.021Z,83.37
2019-04-06T20:22:30.560Z,83.39
2019-04-06T20:24:59.162Z,83.33
2019-04-06T20:27:28.544Z,83.21
2019-04-06T20:29:57.762Z,83.31
2019-04-06T20:32:26.396Z,83.30
2019-04-06T20:34:54.994Z,83.41
2019-04-06T20:37:23.465Z,83.34
2019-04-06T20:39:52.451Z,83.20
2019-04-06T20:42:21.214Z,83.34
2019-04-06T20:44:49.831Z,83.45
2019-04-06T20:47:18.948Z,83.50
2019-04-06T20:49:47.889Z,83.53
2019-04-06T20:52:16.501Z,83.67
2019-04-06T20:54:45.218Z,83.77
2019-04-06T20:57:14.852Z,83.91
2019-04-06T20:59:43.824Z,84.01
2019-04-06T21:02:12.520Z,84.00
2019-04-06T21:04:41.327Z,84.11
2019-04-06T21:07:09.896Z,83.97
2019-04-06T21:09:38.511Z,83.68
2019-04-06T21:12:07.119Z,83.50
2019-04-06T21:14:36.211Z,83.40
2019-04-06T21:17:04.991Z,83.43
2019-04-06T21:19:34.013Z,83.51
2019-04-06T21:22:03.004Z,83.58
2019-04-06T21:24:31.737Z,83.55
2019-04-06T21:27:00.433Z,83.55
2019-04-06T21:29:29.041Z,83.49
2019-04-06T21:31:57.579Z,83.42
2019-04-06T21:34:26.236Z,83.58
2019-04-06T21:36:56.469Z,83.87
2019-04-06T21:39:25.065Z,83.92
2019-04-06T21:41:54.251Z,83.82
2019-04-06T21:44:23.046Z,83.97
2019-04-06T21:46:51.695Z,84.07
2019-04-06T21:49:20.227Z,84.13
2019-04-06T21:51:48.961Z,84.12
2019-04-06T21:54:17.632Z,84.00
2019-04-06T21:56:46.784Z,83.84
2019-04-06T21:59:16.769Z,83.65
2019-04-06T22:01:46.709Z,83.58
2019-04-06T22:04:23.708Z,83.50
2019-04-06T22:06:46.086Z,83.67
2019-04-06T22:09:15.295Z,83.84
2019-04-06T22:11:43.905Z,83.91
2019-04-06T22:14:12.560Z,83.85
2019-04-06T22:16:41.796Z,83.99
2019-04-06T22:19:11.143Z,83.96
2019-04-06T22:21:39.929Z,84.12
2019-04-06T22:24:09.554Z,84.24
2019-04-06T22:26:38.316Z,84.25
2019-04-06T22:29:06.927Z,84.25
2019-04-06T22:31:35.902Z,84.28
2019-04-06T22:34:04.961Z,84.21
2019-04-06T22:36:33.536Z,84.48
2019-04-06T22:39:02.201Z,84.69
2019-04-06T22:41:31.130Z,84.74
2019-04-06T22:43:59.899Z,84.70
2019-04-06T22:46:28.519Z,84.44
2019-04-06T22:48:57.484Z,84.77
2019-04-06T22:51:26.424Z,84.88
2019-04-06T22:53:55.679Z,85.20
2019-04-06T22:56:24.876Z,85.37
2019-04-06T22:58:53.654Z,85.37
2019-04-06T23:01:24.538Z,85.06
2019-04-06T23:04:06.482Z,84.82
2019-04-06T23:06:36.923Z,84.68
2019-04-06T23:09:08.065Z,84.47
2019-04-06T23:11:36.690Z,84.46
2019-04-06T23:14:05.603Z,84.61
2019-04-06T23:16:34.418Z,84.71
2019-04-06T23:19:03.115Z,84.67
2019-04-06T23:21:31.716Z,84.56
2019-04-06T23:24:03.031Z,84.68
2019-04-06T23:26:30.693Z,84.62
2019-04-06T23:28:59.698Z,84.46
2019-04-06T23:31:28.334Z,84.53
2019-04-06T23:33:57.283Z,84.51
2019-04-06T23:36:26.110Z,84.63
2019-04-06T23:38:54.930Z,84.73
2019-04-06T23:41:23.469Z,84.70
2019-04-06T23:43:52.072Z,84.51
2019-04-06T23:46:20.700Z,84.53
2019-04-06T23:48:49.857Z,84.67
2019-04-06T23:51:18.846Z,84.60
2019-04-06T23:53:48.083Z,84.62
2019-04-06T23:56:17.098Z,84.63
2019-04-06T23:58:47.050Z,84.67
